Archival Weather

Ambodedjo

Ambodedjo, Mali (GAMB)

Report from: Wednesday, December 6, 2023 5:00 PM GMT
Current time: Friday, February 23, 2024 7:28 PM GMT

Current weather – Weather history – Daily summaries
Weather forecast

Temperature33.0°C (91.4°F)
Heat index30.9°C (87.5°F)
Dew point6.0°C (42.8°F)
Winds 8 kts (4.1 m/s, 9.2 mph) North (360°)
Clouds Sky clear
Altimeter29.85 in.Hg (1011 mB)
Relative humidity19 %
Density altitude2,265 ft. (690 m)
Remarks Ceiling and visibility OK
Flight conditions Visual Meteorological Conditions
Raw dataGAMB 061700Z 36008KT CAVOK 33/06 Q1011
An error has occurred. This application may no longer respond until reloaded. Reload 🗙